createdAt,value
2022-11-29T00:00:03.224Z,100330.13
2022-11-29T00:02:34.048Z,100329.28
2022-11-29T00:05:04.342Z,100321.63
2022-11-29T00:07:34.873Z,100325.63
2022-11-29T00:10:05.561Z,100330.84
2022-11-29T00:12:38.169Z,100321.59
2022-11-29T00:15:09.613Z,100325.16
2022-11-29T00:17:40.202Z,100329.59
2022-11-29T00:20:12.995Z,100315.88
2022-11-29T00:22:42.929Z,100305.00
2022-11-29T00:25:13.366Z,100312.66
2022-11-29T00:27:46.306Z,100316.28
2022-11-29T00:30:17.058Z,100315.03
2022-11-29T00:32:47.178Z,100304.97
2022-11-29T00:35:17.359Z,100307.00
2022-11-29T00:37:47.995Z,100314.63
2022-11-29T00:40:18.590Z,100310.59
2022-11-29T00:42:50.454Z,100308.97
2022-11-29T00:45:21.132Z,100310.16
2022-11-29T00:47:51.379Z,100313.38
2022-11-29T00:50:22.020Z,100301.28
2022-11-29T00:52:52.269Z,100309.72
2022-11-29T00:55:22.921Z,100302.47
2022-11-29T00:57:55.507Z,100302.47
2022-11-29T01:00:26.404Z,100305.28
2022-11-29T01:02:56.979Z,100307.31
2022-11-29T01:05:27.703Z,100311.75
2022-11-29T01:07:57.763Z,100300.06
2022-11-29T01:10:28.634Z,100306.13
2022-11-29T01:13:00.947Z,100304.50
2022-11-29T01:15:31.728Z,100312.94
2022-11-29T01:18:02.272Z,100311.31
2022-11-29T01:20:33.207Z,100303.69
2022-11-29T01:23:03.327Z,100306.06
2022-11-29T01:25:33.876Z,100305.25
2022-11-29T01:28:06.587Z,100310.09
2022-11-29T01:30:37.100Z,100308.03
2022-11-29T01:33:07.395Z,100307.22
2022-11-29T01:35:37.613Z,100303.59
2022-11-29T01:38:07.554Z,100306.41
2022-11-29T01:40:38.219Z,100300.75
2022-11-29T01:43:18.772Z,100301.16
2022-11-29T01:45:48.821Z,100307.97
2022-11-29T01:48:20.963Z,100305.16
2022-11-29T01:50:51.704Z,100299.53
2022-11-29T01:53:22.002Z,100296.72
2022-11-29T01:55:59.174Z,100300.31
2022-11-29T01:58:32.746Z,100302.34
2022-11-29T02:01:04.582Z,100313.59
2022-11-29T02:03:35.515Z,100317.22
2022-11-29T02:06:08.326Z,100320.88
2022-11-29T02:08:42.184Z,100316.88
2022-11-29T02:12:01.659Z,100319.69
2022-11-29T02:14:54.404Z,100332.94
2022-11-29T02:17:37.103Z,100346.59
2022-11-29T02:21:05.274Z,100355.75
2022-11-29T02:24:14.140Z,100370.97
2022-11-29T02:27:31.348Z,100373.31
2022-11-29T02:30:39.308Z,100349.06
2022-11-29T02:34:00.744Z,100352.63
2022-11-29T02:37:06.011Z,100342.13
2022-11-29T02:40:14.362Z,100342.88
2022-11-29T02:43:24.622Z,100339.25
2022-11-29T02:46:18.673Z,100343.25
2022-11-29T02:49:06.011Z,100350.91
2022-11-29T02:51:48.315Z,100365.34
2022-11-29T02:54:28.280Z,100376.16
2022-11-29T02:57:06.916Z,100385.78
2022-11-29T02:59:52.762Z,100387.38
2022-11-29T03:02:35.801Z,100397.34
2022-11-29T03:05:21.125Z,100408.53
2022-11-29T03:08:03.312Z,100422.56
2022-11-29T03:10:48.479Z,100424.47
2022-11-29T03:13:43.552Z,100416.81
2022-11-29T03:16:31.383Z,100411.94
2022-11-29T03:19:20.300Z,100403.88
2022-11-29T03:22:04.769Z,100410.69
2022-11-29T03:24:45.355Z,100409.50
2022-11-29T03:27:26.637Z,100409.06
2022-11-29T03:30:02.760Z,100403.00
2022-11-29T03:32:45.542Z,100402.53
2022-11-29T03:35:24.912Z,100414.97
2022-11-29T03:38:05.728Z,100416.19
2022-11-29T03:40:48.213Z,100414.19
2022-11-29T03:43:28.796Z,100404.13
2022-11-29T03:46:05.652Z,100413.69
2022-11-29T03:48:46.572Z,100418.19
2022-11-29T03:51:24.451Z,100426.97
2022-11-29T03:54:00.665Z,100423.31
2022-11-29T03:56:34.767Z,100428.94
2022-11-29T03:59:26.547Z,100436.19
2022-11-29T04:02:45.669Z,100445.03
2022-11-29T04:06:03.153Z,100455.44
2022-11-29T04:09:25.688Z,100452.22
2022-11-29T04:12:36.596Z,100449.75
2022-11-29T04:16:03.471Z,100457.38
2022-11-29T04:19:44.407Z,100467.75
2022-11-29T04:22:46.725Z,100469.75
2022-11-29T04:26:05.438Z,100468.56
2022-11-29T04:29:15.712Z,100474.63
2022-11-29T04:32:31.809Z,100469.81
2022-11-29T04:35:41.183Z,100475.06
2022-11-29T04:39:06.085Z,100479.50
2022-11-29T04:42:13.985Z,100491.94
2022-11-29T04:45:19.358Z,100488.78
2022-11-29T04:48:17.617Z,100496.00
2022-11-29T04:51:05.531Z,100498.81
2022-11-29T04:54:11.777Z,100510.88
2022-11-29T04:56:49.820Z,100509.69
2022-11-29T04:59:33.271Z,100506.19
2022-11-29T05:02:16.834Z,100509.00
2022-11-29T05:04:57.993Z,100509.81
2022-11-29T05:07:42.090Z,100517.06
2022-11-29T05:10:31.775Z,100522.69
2022-11-29T05:13:15.150Z,100523.13
2022-11-29T05:16:34.790Z,100536.34
2022-11-29T05:19:41.354Z,100552.78
2022-11-29T05:22:38.604Z,100562.44
2022-11-29T05:25:39.995Z,100570.38
2022-11-29T05:28:20.854Z,100579.63
2022-11-29T05:31:44.832Z,100581.19
2022-11-29T05:34:46.819Z,100575.56
2022-11-29T05:37:33.597Z,100575.13
2022-11-29T05:40:46.733Z,100579.94
2022-11-29T05:43:46.120Z,100586.38
2022-11-29T05:46:29.313Z,100585.19
2022-11-29T05:49:17.986Z,100588.78
2022-11-29T05:52:07.948Z,100588.06
2022-11-29T05:54:48.771Z,100578.09
2022-11-29T05:57:36.422Z,100576.56
2022-11-29T06:00:15.093Z,100581.44
2022-11-29T06:03:00.648Z,100579.50
2022-11-29T06:05:42.066Z,100580.75
2022-11-29T06:08:23.651Z,100578.41
2022-11-29T06:11:07.017Z,100576.03
2022-11-29T06:13:57.712Z,100576.91
2022-11-29T06:16:59.473Z,100563.28
2022-11-29T06:20:22.503Z,100574.19
2022-11-29T06:23:48.845Z,100584.22
2022-11-29T06:26:42.859Z,100573.81
2022-11-29T06:29:39.952Z,100561.81
2022-11-29T06:32:27.150Z,100565.88
2022-11-29T06:35:05.716Z,100568.75
2022-11-29T06:37:42.889Z,100575.69
2022-11-29T06:40:17.021Z,100567.75
2022-11-29T06:42:49.300Z,100572.78
2022-11-29T06:45:23.976Z,100577.06
2022-11-29T06:48:04.622Z,100575.75
2022-11-29T06:50:52.772Z,100577.31
2022-11-29T06:53:38.576Z,100573.16
2022-11-29T06:56:23.331Z,100583.03
2022-11-29T06:59:09.731Z,100589.34
2022-11-29T07:01:50.841Z,100586.34
2022-11-29T07:04:57.196Z,100589.84
2022-11-29T07:07:28.577Z,100598.56
2022-11-29T07:10:01.119Z,100608.06
2022-11-29T07:12:32.496Z,100605.03
2022-11-29T07:15:03.205Z,100601.56
2022-11-29T07:17:51.891Z,100603.78
2022-11-29T07:20:38.187Z,100599.09
2022-11-29T07:23:23.735Z,100610.22
2022-11-29T07:26:10.609Z,100609.59
2022-11-29T07:28:59.025Z,100609.75
2022-11-29T07:31:45.870Z,100609.47
2022-11-29T07:34:34.389Z,100615.16
2022-11-29T07:37:16.545Z,100620.09
2022-11-29T07:40:02.449Z,100619.31
2022-11-29T07:42:51.539Z,100614.06
2022-11-29T07:45:29.573Z,100622.16
2022-11-29T07:47:59.979Z,100633.84
2022-11-29T07:50:34.351Z,100628.59
2022-11-29T07:53:04.867Z,100622.53
2022-11-29T07:55:38.296Z,100620.50
2022-11-29T07:58:08.878Z,100619.63
2022-11-29T08:00:39.269Z,100620.81
2022-11-29T08:03:09.426Z,100619.53
2022-11-29T08:05:42.494Z,100607.41
2022-11-29T08:08:13.044Z,100613.03
2022-11-29T08:10:43.659Z,100604.88
2022-11-29T08:13:14.155Z,100607.69
2022-11-29T08:15:47.684Z,100604.84
2022-11-29T08:18:18.678Z,100601.16
2022-11-29T08:20:50.864Z,100604.00
2022-11-29T08:23:21.488Z,100597.91
2022-11-29T08:25:51.812Z,100603.19
2022-11-29T08:28:21.966Z,100608.00
2022-11-29T08:30:52.449Z,100599.53
2022-11-29T08:33:23.054Z,100589.44
2022-11-29T08:35:55.837Z,100588.22
2022-11-29T08:38:26.440Z,100588.22
2022-11-29T08:40:57.048Z,100586.56
2022-11-29T08:43:27.633Z,100585.31
2022-11-29T08:45:57.854Z,100585.66
2022-11-29T08:48:28.972Z,100594.47
2022-11-29T08:51:02.411Z,100594.44
2022-11-29T08:53:43.373Z,100599.66
2022-11-29T08:57:04.625Z,100591.09
2022-11-29T08:59:07.618Z,100589.84
2022-11-29T09:01:37.758Z,100588.19
2022-11-29T09:04:10.882Z,100594.59
2022-11-29T09:06:45.446Z,100584.47
2022-11-29T09:09:15.509Z,100582.38
2022-11-29T09:11:49.729Z,100582.75
2022-11-29T09:14:23.355Z,100592.38
2022-11-29T09:16:53.793Z,100587.91
2022-11-29T09:19:24.594Z,100589.47
2022-11-29T09:21:57.819Z,100584.13
2022-11-29T09:24:29.225Z,100582.91
2022-11-29T09:26:59.595Z,100587.31
2022-11-29T09:29:31.797Z,100583.63
2022-11-29T09:32:02.449Z,100579.59
2022-11-29T09:34:32.972Z,100583.16
2022-11-29T09:37:07.092Z,100581.09
2022-11-29T09:39:37.647Z,100584.31
2022-11-29T09:42:38.166Z,100566.16
2022-11-29T09:45:13.984Z,100568.13
2022-11-29T09:48:22.009Z,100566.88
2022-11-29T09:51:05.145Z,100556.78
2022-11-29T09:53:57.584Z,100564.03
2022-11-29T09:56:39.689Z,100557.94
2022-11-29T09:59:20.034Z,100558.34
2022-11-29T10:02:00.651Z,100565.97
2022-11-29T10:04:40.768Z,100556.28
2022-11-29T10:07:22.062Z,100558.66
2022-11-29T10:10:03.169Z,100565.16
2022-11-29T10:12:42.548Z,100564.72
2022-11-29T10:15:20.991Z,100565.50
2022-11-29T10:17:59.876Z,100568.72
2022-11-29T10:20:39.746Z,100566.66
2022-11-29T10:23:42.888Z,100564.22
2022-11-29T10:26:16.399Z,100567.81
2022-11-29T10:28:49.968Z,100567.81
2022-11-29T10:31:27.517Z,100572.66
2022-11-29T10:34:01.405Z,100556.09
2022-11-29T10:36:41.591Z,100553.28
2022-11-29T10:39:20.611Z,100550.44
2022-11-29T10:41:58.302Z,100556.94
2022-11-29T10:44:30.320Z,100549.25
2022-11-29T10:47:10.738Z,100546.06
2022-11-29T10:49:41.993Z,100543.25
2022-11-29T10:52:22.409Z,100539.22
2022-11-29T10:54:58.923Z,100539.63
2022-11-29T10:57:31.296Z,100528.00
2022-11-29T11:00:05.502Z,100530.84
2022-11-29T11:02:37.157Z,100517.97
2022-11-29T11:05:19.926Z,100517.56
2022-11-29T11:08:00.232Z,100514.00
2022-11-29T11:10:33.032Z,100512.03
2022-11-29T11:13:23.176Z,100514.94
2022-11-29T11:16:00.960Z,100515.78
2022-11-29T11:18:31.341Z,100523.88
2022-11-29T11:21:04.475Z,100523.16
2022-11-29T11:23:42.331Z,100526.44
2022-11-29T11:26:16.432Z,100540.19
2022-11-29T11:28:59.457Z,100534.25
2022-11-29T11:31:38.459Z,100536.28
2022-11-29T11:34:53.943Z,100530.69
2022-11-29T11:37:28.832Z,100531.91
2022-11-29T11:40:02.546Z,100524.25
2022-11-29T11:42:42.634Z,100522.69
2022-11-29T11:45:42.135Z,100534.03
2022-11-29T11:48:19.540Z,100533.63
2022-11-29T11:50:55.045Z,100527.59
2022-11-29T11:53:30.438Z,100533.25
2022-11-29T11:56:07.829Z,100532.41
2022-11-29T11:58:48.196Z,100542.09
2022-11-29T12:01:31.231Z,100542.91
2022-11-29T12:04:12.063Z,100541.72
2022-11-29T12:06:51.734Z,100540.13
2022-11-29T12:09:45.308Z,100534.91
2022-11-29T12:12:22.388Z,100549.41
2022-11-29T12:15:01.949Z,100555.13
2022-11-29T12:17:40.691Z,100559.97
2022-11-29T12:20:25.430Z,100560.81
2022-11-29T12:23:24.792Z,100568.09
2022-11-29T12:26:02.133Z,100554.34
2022-11-29T12:28:38.627Z,100568.47
2022-11-29T12:31:28.937Z,100570.09
2022-11-29T12:34:28.321Z,100565.28
2022-11-29T12:37:12.849Z,100566.50
2022-11-29T12:39:59.631Z,100575.75
2022-11-29T12:42:52.377Z,100578.59
2022-11-29T12:45:43.922Z,100586.25
2022-11-29T12:48:31.720Z,100588.25
2022-11-29T12:51:18.540Z,100588.22
2022-11-29T12:54:13.044Z,100597.13
2022-11-29T12:56:53.137Z,100592.22
2022-11-29T12:59:47.679Z,100595.44
2022-11-29T13:02:43.934Z,100599.88
2022-11-29T13:05:30.293Z,100614.00
2022-11-29T13:08:40.417Z,100613.94
2022-11-29T13:11:21.962Z,100608.25
2022-11-29T13:14:34.743Z,100614.69
2022-11-29T13:17:02.741Z,100615.47
2022-11-29T13:19:45.973Z,100620.28
2022-11-29T13:22:30.335Z,100631.97
2022-11-29T13:25:08.972Z,100633.19
2022-11-29T13:27:46.931Z,100638.81
2022-11-29T13:30:18.776Z,100638.81
2022-11-29T13:32:59.372Z,100647.31
2022-11-29T13:35:40.823Z,100646.50
2022-11-29T13:38:23.905Z,100654.59
2022-11-29T13:41:04.600Z,100657.81
2022-11-29T13:43:44.530Z,100662.63
2022-11-29T13:46:30.354Z,100670.69
2022-11-29T13:49:01.555Z,100673.44
2022-11-29T13:51:37.623Z,100676.28
2022-11-29T13:54:26.994Z,100681.50
2022-11-29T13:57:09.885Z,100668.59
2022-11-29T13:59:47.429Z,100672.59
2022-11-29T14:02:32.754Z,100684.25
2022-11-29T14:05:04.047Z,100690.28
2022-11-29T14:07:35.595Z,100687.47
2022-11-29T14:10:10.077Z,100686.66
2022-11-29T14:12:53.350Z,100685.41
2022-11-29T14:15:31.756Z,100685.78
2022-11-29T14:18:04.164Z,100685.34
2022-11-29T14:20:58.659Z,100694.22
2022-11-29T14:23:43.323Z,100693.34
2022-11-29T14:26:31.240Z,100691.72
2022-11-29T14:29:04.354Z,100708.25
2022-11-29T14:31:57.652Z,100706.97
2022-11-29T14:34:49.192Z,100700.09
2022-11-29T14:37:48.392Z,100702.50
2022-11-29T14:40:38.503Z,100699.66
2022-11-29T14:43:23.947Z,100707.72
2022-11-29T14:46:26.184Z,100704.81
2022-11-29T14:49:05.564Z,100716.06
2022-11-29T14:51:37.813Z,100708.00
2022-11-29T14:54:19.930Z,100713.66
2022-11-29T14:56:50.465Z,100707.56
2022-11-29T15:00:01.477Z,100711.56
2022-11-29T15:02:41.244Z,100706.31
2022-11-29T15:05:24.793Z,100703.50
2022-11-29T15:08:11.153Z,100706.72
2022-11-29T15:10:47.209Z,100703.91
2022-11-29T15:13:27.437Z,100701.44
2022-11-29T15:16:24.195Z,100701.81
2022-11-29T15:19:39.912Z,100697.75
2022-11-29T15:22:19.790Z,100700.16
2022-11-29T15:24:57.074Z,100700.50
2022-11-29T15:27:28.856Z,100705.34
2022-11-29T15:30:00.390Z,100700.09
2022-11-29T15:32:33.565Z,100700.47
2022-11-29T15:35:08.103Z,100703.28
2022-11-29T15:37:46.997Z,100706.50
2022-11-29T15:40:23.933Z,100717.34
2022-11-29T15:43:03.316Z,100718.53
2022-11-29T15:45:36.838Z,100713.28
2022-11-29T15:48:32.411Z,100717.28
2022-11-29T15:51:29.785Z,100720.84
2022-11-29T15:54:13.247Z,100715.59
2022-11-29T15:56:49.992Z,100713.16
2022-11-29T15:59:33.541Z,100711.88
2022-11-29T16:02:11.127Z,100710.63
2022-11-29T16:04:47.160Z,100711.81
2022-11-29T16:07:22.650Z,100715.84
2022-11-29T16:09:59.725Z,100720.25
2022-11-29T16:12:30.628Z,100723.44
2022-11-29T16:15:04.147Z,100732.28
2022-11-29T16:17:37.272Z,100740.31
2022-11-29T16:20:25.572Z,100740.69
2022-11-29T16:23:13.901Z,100750.72
2022-11-29T16:26:02.017Z,100755.91
2022-11-29T16:28:39.401Z,100743.78
2022-11-29T16:31:14.983Z,100751.41
2022-11-29T16:33:49.482Z,100746.16
2022-11-29T16:36:25.094Z,100747.34
2022-11-29T16:39:06.996Z,100752.16
2022-11-29T16:41:40.037Z,100757.78
2022-11-29T16:45:07.787Z,100761.38
2022-11-29T16:47:58.439Z,100754.91
2022-11-29T16:50:30.629Z,100750.47
2022-11-29T16:53:36.413Z,100750.84
2022-11-29T16:56:13.857Z,100749.22
2022-11-29T16:59:17.208Z,100758.84
2022-11-29T17:01:37.133Z,100758.81
2022-11-29T17:04:07.567Z,100751.09
2022-11-29T17:06:39.063Z,100757.09
2022-11-29T17:09:10.148Z,100747.75
2022-11-29T17:11:42.544Z,100753.00
2022-11-29T17:14:12.729Z,100752.53
2022-11-29T17:16:43.160Z,100754.91
2022-11-29T17:19:15.461Z,100752.47
2022-11-29T17:21:45.882Z,100762.13
2022-11-29T17:24:19.186Z,100766.91
2022-11-29T17:26:51.924Z,100765.28
2022-11-29T17:29:22.654Z,100761.63
2022-11-29T17:31:54.029Z,100754.75
2022-11-29T17:34:29.341Z,100755.50
2022-11-29T17:37:00.725Z,100765.53
2022-11-29T17:39:31.195Z,100771.53
2022-11-29T17:42:02.917Z,100761.47
2022-11-29T17:44:34.644Z,100761.47
2022-11-29T17:47:05.279Z,100763.81
2022-11-29T17:49:35.860Z,100767.84
2022-11-29T17:52:06.378Z,100764.19
2022-11-29T17:54:38.765Z,100763.75
2022-11-29T17:57:11.193Z,100766.13
2022-11-29T17:59:41.516Z,100769.34
2022-11-29T18:02:15.812Z,100764.88
2022-11-29T18:04:46.585Z,100770.88
2022-11-29T18:07:17.609Z,100778.53
2022-11-29T18:09:49.419Z,100780.44
2022-11-29T18:12:22.972Z,100782.47
2022-11-29T18:14:53.508Z,100783.63
2022-11-29T18:17:23.772Z,100786.84
2022-11-29T18:19:56.985Z,100780.38
2022-11-29T18:22:28.032Z,100779.56
2022-11-29T18:25:22.676Z,100784.38
2022-11-29T18:27:51.929Z,100796.03
2022-11-29T18:30:22.123Z,100788.75
2022-11-29T18:32:52.397Z,100784.69
2022-11-29T18:35:23.067Z,100778.59
2022-11-29T18:40:46.035Z,100784.53
2022-11-29T18:43:19.437Z,100782.47
2022-11-29T18:45:51.294Z,100778.38
2022-11-29T18:48:22.016Z,100784.38
2022-11-29T18:50:55.306Z,100791.19
2022-11-29T18:53:27.279Z,100788.75
2022-11-29T18:56:11.019Z,100789.16
2022-11-29T18:58:45.845Z,100779.41
2022-11-29T19:01:21.782Z,100786.22
2022-11-29T19:04:00.875Z,100784.59
2022-11-29T19:06:40.242Z,100794.25
2022-11-29T19:09:17.748Z,100784.53
2022-11-29T19:11:49.201Z,100778.06
2022-11-29T19:14:25.653Z,100786.50
2022-11-29T19:16:58.570Z,100783.63
2022-11-29T19:19:31.179Z,100781.97
2022-11-29T19:22:04.794Z,100789.97
2022-11-29T19:24:41.749Z,100790.72
2022-11-29T19:27:14.688Z,100794.69
2022-11-29T19:29:51.107Z,100793.91
2022-11-29T19:32:23.757Z,100793.91
2022-11-29T19:34:58.824Z,100793.91
2022-11-29T19:37:32.162Z,100799.97
2022-11-29T19:40:05.194Z,100804.78
2022-11-29T19:42:38.116Z,100805.97
2022-11-29T19:45:18.044Z,100817.59
2022-11-29T19:47:54.240Z,100818.44
2022-11-29T19:50:25.347Z,100808.72
2022-11-29T19:52:59.595Z,100817.97
2022-11-29T19:55:32.059Z,100821.16
2022-11-29T19:58:05.958Z,100811.44
2022-11-29T20:00:40.076Z,100813.81
2022-11-29T20:03:13.892Z,100819.34
2022-11-29T20:05:44.650Z,100816.91
2022-11-29T20:08:21.012Z,100824.09
2022-11-29T20:10:52.383Z,100824.91
2022-11-29T20:13:23.538Z,100823.28
2022-11-29T20:15:56.055Z,100828.09
2022-11-29T20:18:28.589Z,100822.03
2022-11-29T20:21:03.898Z,100813.50
2022-11-29T20:23:35.214Z,100808.22
2022-11-29T20:26:06.143Z,100817.88
2022-11-29T20:28:38.864Z,100824.69
2022-11-29T20:31:15.318Z,100820.22
2022-11-29T20:33:47.489Z,100828.59
2022-11-29T20:36:35.296Z,100820.50
2022-11-29T20:39:20.732Z,100817.22
2022-11-29T20:42:10.685Z,100818.44
2022-11-29T20:44:47.125Z,100814.34
2022-11-29T20:47:23.741Z,100817.91
2022-11-29T20:49:55.374Z,100819.41
2022-11-29T20:52:40.455Z,100814.63
2022-11-29T20:55:12.200Z,100819.41
2022-11-29T20:57:43.073Z,100822.22
2022-11-29T21:00:16.001Z,100823.06
2022-11-29T21:02:48.756Z,100814.16
2022-11-29T21:05:19.444Z,100817.78
2022-11-29T21:07:49.620Z,100814.16
2022-11-29T21:10:22.329Z,100825.03
2022-11-29T21:12:53.715Z,100812.16
2022-11-29T21:15:24.976Z,100815.72
2022-11-29T21:17:58.907Z,100808.47
2022-11-29T21:20:31.016Z,100808.00
2022-11-29T21:23:10.968Z,100811.19
2022-11-29T21:25:51.868Z,100815.97
2022-11-29T21:28:26.447Z,100813.16
2022-11-29T21:30:57.394Z,100814.81
2022-11-29T21:33:31.570Z,100814.00
2022-11-29T21:36:03.393Z,100809.94
2022-11-29T21:38:34.716Z,100801.00
2022-11-29T21:41:04.886Z,100805.72
2022-11-29T21:44:04.958Z,100792.03
2022-11-29T21:46:25.853Z,100789.56
2022-11-29T21:48:59.578Z,100782.69
2022-11-29T21:51:30.097Z,100783.41
2022-11-29T21:54:00.724Z,100785.78
2022-11-29T21:56:31.165Z,100788.94
2022-11-29T21:59:01.198Z,100789.31
2022-11-29T22:01:34.244Z,100796.50
2022-11-29T22:04:06.812Z,100800.47
2022-11-29T22:06:37.298Z,100797.66
2022-11-29T22:09:08.154Z,100785.59
2022-11-29T22:11:38.822Z,100793.59
2022-11-29T22:14:18.750Z,100795.56
2022-11-29T22:16:52.489Z,100804.38
2022-11-29T22:19:26.244Z,100799.09
2022-11-29T22:21:59.942Z,100797.50
2022-11-29T22:24:33.218Z,100788.22
2022-11-29T22:27:04.212Z,100787.44
2022-11-29T22:29:34.456Z,100801.09
2022-11-29T22:32:05.042Z,100801.91
2022-11-29T22:34:37.580Z,100797.91
2022-11-29T22:37:07.269Z,100809.16
2022-11-29T22:39:37.872Z,100800.72
2022-11-29T22:42:08.525Z,100801.56
2022-11-29T22:44:39.406Z,100793.13
2022-11-29T22:47:10.164Z,100806.34
2022-11-29T22:49:42.147Z,100806.34
2022-11-29T22:52:12.679Z,100807.53
2022-11-29T22:54:48.077Z,100800.31
2022-11-29T22:57:22.601Z,100808.75
2022-11-29T22:59:52.564Z,100813.53
2022-11-29T23:02:23.426Z,100814.34
2022-11-29T23:04:56.275Z,100810.25
2022-11-29T23:07:27.090Z,100814.25
2022-11-29T23:09:57.774Z,100811.00
2022-11-29T23:12:28.016Z,100811.34
2022-11-29T23:14:59.702Z,100812.50
2022-11-29T23:17:30.212Z,100812.09
2022-11-29T23:20:02.384Z,100807.63
2022-11-29T23:22:33.423Z,100798.75
2022-11-29T23:25:03.550Z,100799.94
2022-11-29T23:27:33.772Z,100791.88
2022-11-29T23:30:04.615Z,100786.59
2022-11-29T23:32:35.093Z,100788.94
2022-11-29T23:35:08.134Z,100783.31
2022-11-29T23:37:37.746Z,100792.50
2022-11-29T23:40:10.402Z,100795.31
2022-11-29T23:42:44.974Z,100786.41
2022-11-29T23:45:17.598Z,100794.84
2022-11-29T23:47:48.227Z,100796.00
2022-11-29T23:50:21.487Z,100794.38
2022-11-29T23:52:55.993Z,100780.69
2022-11-29T23:55:28.080Z,100784.69
2022-11-29T23:57:58.661Z,100787.41
